KGEY/GEY METAR and TAF weather

Enter ICAO airport designator
Station Type Date Time Source
KGEY METAR 2019/04/24 15:53 UTC NOAA

KGEY 241553Z AUTO 00000KT 10SM OVC100 12/04 A2996 RMK AO2 SLP133 T01220039


Station Type Date Time Source
KGEY Decoded METAR 2019/04/24 15:53 UTC NOAA

SOUTH BIG HORN COUNTY AIRPORT , WY, United States (KGEY) 44-31N 108-05W 1191M
Apr 24, 2019 - 11:53 AM EDT / 2019.04.24 1553 UTC
Wind: Calm:0
Visibility: 10 mile(s):0
Sky conditions: overcast
Temperature: 54.0 F (12.2 C)
Dew Point: 39.0 F (3.9 C)
Relative Humidity: 56%
Pressure (altimeter): 29.96 in. Hg (1014 hPa)
ob: KGEY 241553Z AUTO 00000KT 10SM OVC100 12/04 A2996 RMK AO2 SLP133 T01220039
cycle: 16

Station Type Date Time Source
KGEY TAF UTC NOAA

Error!

Example: see airport list